Manila, Philippines

8:17 PM PHT on February 12, 2016 (GMT +0800)
Taft Avenue, Manila | | Change Station
CLOSE
Current Station
Personal Weather Station
Location: 2401 Taft Avenue, Manila
Elevation: 276 ft
Nearby Weather Stations

Elev 276 ft 14.57 °N, 120.99 °E | Updated 2 minutes ago

Partly Cloudy
Partly Cloudy
80.0 °F
Feels Like 83 °F
N
0.0
Wind Variable Wind from SE
Gusts 0.0 mph

Today
High -- | Low -- °F
--% Chance of Precip.
Yesterday
High -- | Low -- °F
Precip. -- in
Pressure 29.95 in
Visibility 6.2 miles
Clouds Few 2500 ft
Heat Index 83 °F
Dew Point 70 °F
Humidity 71%
Rainfall 0.00 in
Snow Depth Not available.
6:21 AM 5:59 PM
Waxing Crescent, 20% visible
METAR RPLL 121200Z 12008KT 090V180 9999 FEW025 27/20 Q1014 NOSIG RMK A2994
Pressure 29.95 in
Visibility 6.2 miles
Clouds Few 2500 ft
Heat Index 83 °F
Dew Point 70 °F
Humidity 71%
Rainfall 0.00 in
Snow Depth Not available.
6:21 AM 5:59 PM
Waxing Crescent, 20% visible
METAR RPLL 121200Z 12008KT 090V180 9999 FEW025 27/20 Q1014 NOSIG RMK A2994

10-Day Weather Forecast

No radar image for this location.
×

Almanac

Astronomy

Feb. 12, 2016 Rise Set
Actual Time
Civil Twilight
Nautical Twilight
Astronomical Twilight
Moon
Length of Visible Light
Length of Day
Tomorrow will be .
, % of the Moon is Illuminated

Today's Extremes

Country Highs Country Lows

Community

WunderPhotos

Upload Photos

1,892,295 photos uploaded!

WunderBlog® & News

Nearby

Air Quality

  Air Quality AQ Index Pollutant
Not available.

Snow Depth

Station Depth Elevation

Earthquake Activity

City Distance Mag. Time & Date
Minimum magnitude displayed is 2.5.

Coastal Water Temperatures

Place Temperature

Stations

Nearby Weather Stations

Station Location Temp. Windchill Dew Point Humidity Wind Precip. Elev Updated Type